KOYM

St Marys Municipal Airport

St Marys, Pennsylvania, USA
METAR KOYM 162235Z AUTO 33009KT 10SM -SN BKN011 OVC020 M03/M04 A3014 RMK AO2
Observed Flight Rules
Jan-16 @ 22:35 UTC (24 minutes ago) Marginal Visual Flight Rules
Wind Visibility Clouds Conditions
330° at 9 knots 10 miles
  • Broken at 1,100' AGL
  • Overcast at 2,000' AGL
  • Light Snow
Temperatures Readings
Current -3°C / 27°F
Dewpoint -4°C / 25°F
Humidity 93%
Altimeter 30.14" Hg
Pressure 1020.62 hPa
Elevation 590
METAR KOYM 162235Z AUTO 33009KT 10SM -SN BKN011 OVC020 M03/M04 A3014 RMK AO2
Observed Flight Rules
Jan-16 @ 22:35 UTC
(24 minutes ago)
MVFR
Wind Visibility
330° at 9 knots 10 miles
Clouds
  • Broken at 1,100' AGL
  • Overcast at 2,000' AGL
Conditions
  • Light Snow
Temperature Dewpoint
-3°C / 27°F -4°C / 25°F
Humidity Altimeter Pressure
93% 30.14" Hg 1020.62 hPa